Barnstaple, United Kingdom
Current Conditions -  °F | °C
As of 12:50 AM on Saturday 29 Nov 2014 (Local Time) from EGDX Reporting Station
Broken Clouds Broken Clouds  
Wind Chill: 52°   Ceiling: 9000
Heat Index: 52°   Visibility: 6mi
Dew Point: 48°   Wind: 17mph
Humidity: 88%   Direction: 60°ENE
Pressure: 29.68"   Gusts: NA
Location:  51.08°N, 4.06°W
Report Text: EGDX 290050Z AUTO 06015KT 9999 BKN090/// BKN140/// 11/09 Q1005
Loading
Personal Weather Stations






























Interactive Weather Map New forecast layout! Learn more

10-Day Weather Forecast

Advertisements
Track Severe Weather on mobile